createdAt,value
2019-02-12T00:01:14.296Z,0.40
2019-02-12T00:03:44.350Z,0.40
2019-02-12T00:06:14.241Z,0.40
2019-02-12T00:08:44.085Z,0.40
2019-02-12T00:11:13.856Z,0.40
2019-02-12T00:13:43.805Z,0.40
2019-02-12T00:16:13.594Z,0.40
2019-02-12T00:18:43.413Z,0.30
2019-02-12T00:21:13.313Z,0.40
2019-02-12T00:23:43.185Z,0.40
2019-02-12T00:26:13.068Z,0.40
2019-02-12T00:28:42.967Z,0.40
2019-02-12T00:31:12.901Z,0.40
2019-02-12T00:33:42.688Z,0.40
2019-02-12T00:36:12.513Z,0.40
2019-02-12T00:38:42.501Z,0.40
2019-02-12T00:41:12.429Z,0.40
2019-02-12T00:43:42.239Z,0.50
2019-02-12T00:46:12.070Z,0.50
2019-02-12T00:48:41.986Z,0.40
2019-02-12T00:51:17.598Z,0.40
2019-02-12T00:53:43.233Z,0.40
2019-02-12T00:56:13.134Z,0.40
2019-02-12T00:58:43.049Z,0.40
2019-02-12T01:01:12.853Z,0.40
2019-02-12T01:03:42.684Z,0.30
2019-02-12T01:06:14.427Z,0.30
2019-02-12T01:08:44.465Z,0.30
2019-02-12T01:11:14.240Z,0.30
2019-02-12T01:13:44.735Z,0.40
2019-02-12T01:16:14.509Z,0.40
2019-02-12T01:18:44.405Z,0.40
2019-02-12T01:21:14.215Z,0.40
2019-02-12T01:23:44.233Z,0.30
2019-02-12T01:26:14.081Z,0.40
2019-02-12T01:28:44.077Z,0.30
2019-02-12T01:31:13.987Z,0.30
2019-02-12T01:33:43.891Z,0.30
2019-02-12T01:36:13.817Z,0.30
2019-02-12T01:38:43.710Z,0.30
2019-02-12T01:41:13.517Z,0.30
2019-02-12T01:43:43.561Z,0.30
2019-02-12T01:46:13.549Z,0.30
2019-02-12T01:48:43.489Z,0.30
2019-02-12T01:51:13.273Z,0.30
2019-02-12T01:53:43.327Z,0.30
2019-02-12T01:56:13.110Z,0.30
2019-02-12T01:58:42.993Z,0.40
2019-02-12T02:01:12.829Z,0.40
2019-02-12T02:03:42.709Z,0.40
2019-02-12T02:06:12.560Z,0.40
2019-02-12T02:08:42.354Z,0.30
2019-02-12T02:11:12.082Z,0.40
2019-02-12T02:13:41.885Z,0.40
2019-02-12T02:16:11.805Z,0.40
2019-02-12T02:18:42.613Z,0.40
2019-02-12T02:21:14.165Z,0.50
2019-02-12T02:23:43.983Z,0.50
2019-02-12T02:26:13.854Z,0.40
2019-02-12T02:28:43.741Z,0.40
2019-02-12T02:31:13.708Z,0.50
2019-02-12T02:33:43.681Z,0.40
2019-02-12T02:36:13.677Z,0.50
2019-02-12T02:38:43.703Z,0.50
2019-02-12T02:41:13.710Z,0.50
2019-02-12T02:43:43.537Z,0.50
2019-02-12T02:46:13.333Z,0.50
2019-02-12T02:48:43.361Z,0.50
2019-02-12T02:51:14.346Z,0.50
2019-02-12T02:53:44.105Z,0.50
2019-02-12T02:56:13.905Z,0.50
2019-02-12T02:58:43.715Z,0.50
2019-02-12T03:01:13.553Z,0.50
2019-02-12T03:03:43.333Z,0.50
2019-02-12T03:06:13.260Z,0.50
2019-02-12T03:08:43.065Z,0.50
2019-02-12T03:11:12.887Z,0.50
2019-02-12T03:13:44.513Z,0.50
2019-02-12T03:16:14.454Z,0.50
2019-02-12T03:18:44.362Z,0.50
2019-02-12T03:21:14.201Z,0.50
2019-02-12T03:23:44.109Z,0.50
2019-02-12T03:26:13.983Z,0.50
2019-02-12T03:28:44.035Z,0.50
2019-02-12T03:31:13.911Z,0.60
2019-02-12T03:33:43.766Z,0.50
2019-02-12T03:36:13.630Z,0.60
2019-02-12T03:38:43.483Z,0.60
2019-02-12T03:41:13.268Z,0.60
2019-02-12T03:43:43.150Z,0.60
2019-02-12T03:46:13.800Z,0.60
2019-02-12T03:48:46.621Z,0.60
2019-02-12T03:51:16.433Z,0.50
2019-02-12T03:53:46.218Z,0.50
2019-02-12T03:56:16.153Z,0.50
2019-02-12T03:58:46.121Z,0.50
2019-02-12T04:01:16.098Z,0.50
2019-02-12T04:03:47.093Z,0.50
2019-02-12T04:06:17.033Z,0.60
2019-02-12T04:08:47.013Z,0.50
2019-02-12T04:11:16.972Z,0.50
2019-02-12T04:13:46.873Z,0.50
2019-02-12T04:16:16.874Z,0.50
2019-02-12T04:18:46.711Z,0.50
2019-02-12T04:21:16.705Z,0.60
2019-02-12T04:23:46.837Z,0.60
2019-02-12T04:26:16.635Z,0.50
2019-02-12T04:28:46.569Z,0.50
2019-02-12T04:31:16.569Z,0.50
2019-02-12T04:36:15.754Z,0.40
2019-02-12T04:38:45.798Z,0.40
2019-02-12T04:41:15.809Z,0.40
2019-02-12T04:43:47.054Z,0.50
2019-02-12T04:46:16.881Z,0.50
2019-02-12T04:48:46.778Z,0.50
2019-02-12T04:51:16.813Z,0.50
2019-02-12T04:53:46.808Z,0.40
2019-02-12T04:56:16.640Z,0.40
2019-02-12T04:58:46.425Z,0.40
2019-02-12T05:01:16.271Z,0.40
2019-02-12T05:03:46.070Z,0.40
2019-02-12T05:06:15.763Z,1.30
2019-02-12T05:09:17.049Z,0.40
2019-02-12T05:11:52.331Z,0.40
2019-02-12T05:14:22.199Z,0.40
2019-02-12T05:16:52.058Z,0.30
2019-02-12T05:19:22.017Z,0.30
2019-02-12T05:21:51.813Z,0.20
2019-02-12T05:24:21.633Z,0.20
2019-02-12T05:26:51.632Z,0.10
2019-02-12T05:29:21.470Z,0.10
2019-02-12T05:31:51.567Z,0.10
2019-02-12T05:34:21.517Z,0.10
2019-02-12T05:36:51.595Z,0.10
2019-02-12T05:39:21.511Z,0.10
2019-02-12T05:41:51.495Z,0.10
2019-02-12T05:44:21.531Z,0.00
2019-02-12T05:46:51.369Z,0.10
2019-02-12T05:49:21.260Z,0.00
2019-02-12T05:51:51.336Z,0.00
2019-02-12T05:54:21.191Z,0.00
2019-02-12T05:56:51.031Z,-0.10
2019-02-12T05:59:20.941Z,0.00
2019-02-12T06:01:50.828Z,0.00
2019-02-12T06:04:20.663Z,0.00
2019-02-12T06:06:50.577Z,0.00
2019-02-12T06:09:20.382Z,0.00
2019-02-12T06:11:50.273Z,0.00
2019-02-12T06:14:20.296Z,0.00
2019-02-12T06:16:52.031Z,0.00
2019-02-12T06:19:21.884Z,0.10
2019-02-12T06:21:51.668Z,0.00
2019-02-12T06:24:21.626Z,0.10
2019-02-12T06:26:51.707Z,0.10
2019-02-12T06:29:21.620Z,0.10
2019-02-12T06:31:51.558Z,0.20
2019-02-12T06:34:21.529Z,0.20
2019-02-12T06:36:51.485Z,0.30
2019-02-12T06:39:21.375Z,0.30
2019-02-12T06:41:51.317Z,0.30
2019-02-12T06:44:21.237Z,0.30
2019-02-12T06:46:51.205Z,0.40
2019-02-12T06:49:21.265Z,0.40
2019-02-12T06:51:51.365Z,0.50
2019-02-12T06:54:21.297Z,0.50
2019-02-12T06:56:51.487Z,0.50
2019-02-12T06:59:21.538Z,0.50
2019-02-12T07:01:51.522Z,0.50
2019-02-12T07:04:24.429Z,0.50
2019-02-12T07:07:31.773Z,0.60
2019-02-12T07:10:26.509Z,0.60
2019-02-12T07:13:32.865Z,0.50
2019-02-12T07:16:47.129Z,0.60
2019-02-12T07:19:58.318Z,0.50
2019-02-12T07:22:58.948Z,0.60
2019-02-12T07:26:01.407Z,0.60
2019-02-12T07:29:22.753Z,0.60
2019-02-12T07:32:28.183Z,0.60
2019-02-12T07:35:28.777Z,0.70
2019-02-12T07:38:23.473Z,0.80
2019-02-12T07:41:31.173Z,0.80
2019-02-12T07:44:31.638Z,0.80
2019-02-12T07:47:39.512Z,0.80
2019-02-12T07:50:42.860Z,0.80
2019-02-12T07:53:39.591Z,0.80
2019-02-12T07:56:55.152Z,0.90
2019-02-12T08:00:11.846Z,0.90
2019-02-12T08:03:18.521Z,1.00
2019-02-12T08:06:20.026Z,1.00
2019-02-12T08:09:35.881Z,1.00
2019-02-12T08:12:23.456Z,1.10
2019-02-12T08:15:17.180Z,1.20
2019-02-12T08:18:32.842Z,1.20
2019-02-12T08:21:31.874Z,1.30
2019-02-12T08:24:45.199Z,1.30
2019-02-12T08:27:53.445Z,1.30
2019-02-12T08:31:09.280Z,1.50
2019-02-12T08:34:25.188Z,1.60
2019-02-12T08:37:10.461Z,1.80
2019-02-12T08:40:16.025Z,1.90
2019-02-12T08:43:15.722Z,2.00
2019-02-12T08:46:30.361Z,2.30
2019-02-12T08:49:25.655Z,2.50
2019-02-12T08:52:38.309Z,2.50
2019-02-12T08:55:23.762Z,2.60
2019-02-12T08:58:31.874Z,2.50
2019-02-12T09:01:48.069Z,2.60
2019-02-12T09:04:42.173Z,2.60
2019-02-12T09:07:52.958Z,2.70
2019-02-12T09:11:15.465Z,2.90
2019-02-12T09:14:15.996Z,2.90
2019-02-12T09:17:18.911Z,3.20
2019-02-12T09:20:36.338Z,3.20
2019-02-12T09:24:03.502Z,3.40
2019-02-12T09:27:20.689Z,3.50
2019-02-12T09:30:17.125Z,3.50
2019-02-12T09:33:27.617Z,3.30
2019-02-12T09:36:27.199Z,3.70
2019-02-12T09:39:42.613Z,3.90
2019-02-12T09:43:02.760Z,4.00
2019-02-12T09:46:19.325Z,4.30
2019-02-12T09:49:20.781Z,4.60
2019-02-12T09:52:21.054Z,4.50
2019-02-12T09:55:18.705Z,4.30
2019-02-12T09:58:07.729Z,4.70
2019-02-12T10:01:07.029Z,4.90
2019-02-12T10:04:11.009Z,4.80
2019-02-12T10:07:08.553Z,4.80
2019-02-12T10:10:19.430Z,5.20
2019-02-12T10:13:16.478Z,6.00
2019-02-12T10:16:39.770Z,6.10
2019-02-12T10:19:42.782Z,6.40
2019-02-12T10:23:12.558Z,6.90
2019-02-12T10:26:05.848Z,6.90
2019-02-12T10:29:22.426Z,6.80
2019-02-12T10:31:50.489Z,7.10
2019-02-12T10:34:20.538Z,7.20
2019-02-12T10:36:50.539Z,7.20
2019-02-12T10:39:20.474Z,7.50
2019-02-12T10:41:50.306Z,7.60
2019-02-12T10:44:20.217Z,7.60
2019-02-12T10:46:50.201Z,8.20
2019-02-12T10:49:20.033Z,7.50
2019-02-12T10:51:50.999Z,8.00
2019-02-12T10:54:27.747Z,8.00
2019-02-12T10:56:52.521Z,8.80
2019-02-12T10:59:22.431Z,8.70
2019-02-12T11:01:52.386Z,9.30
2019-02-12T11:04:22.261Z,8.10
2019-02-12T11:06:52.073Z,8.10
2019-02-12T11:09:22.193Z,8.60
2019-02-12T11:11:52.223Z,8.90
2019-02-12T11:14:22.137Z,9.70
2019-02-12T11:16:52.061Z,10.20
2019-02-12T11:19:22.145Z,10.20
2019-02-12T11:21:53.787Z,10.80
2019-02-12T11:24:23.820Z,10.60
2019-02-12T11:26:53.751Z,10.50
2019-02-12T11:29:23.777Z,10.90
2019-02-12T11:31:53.764Z,11.30
2019-02-12T11:34:23.886Z,10.50
2019-02-12T11:36:53.701Z,10.40
2019-02-12T11:39:23.511Z,10.90
2019-02-12T11:41:53.525Z,11.30
2019-02-12T11:44:23.356Z,11.50
2019-02-12T11:46:53.373Z,11.10
2019-02-12T11:49:23.269Z,11.90
2019-02-12T11:51:53.301Z,11.70
2019-02-12T11:54:23.181Z,11.60
2019-02-12T11:56:53.025Z,11.60
2019-02-12T11:59:22.918Z,11.30
2019-02-12T12:01:52.748Z,11.40
2019-02-12T12:04:24.761Z,11.10
2019-02-12T12:06:54.626Z,10.70
2019-02-12T12:09:24.401Z,12.40
2019-02-12T12:11:54.329Z,13.60
2019-02-12T12:14:24.244Z,12.90
2019-02-12T12:16:54.061Z,11.30
2019-02-12T12:19:23.998Z,10.00
2019-02-12T12:21:53.766Z,10.90
2019-02-12T12:24:23.741Z,10.80
2019-02-12T12:26:53.609Z,11.40
2019-02-12T12:29:23.541Z,10.50
2019-02-12T12:31:53.613Z,10.00
2019-02-12T12:34:23.581Z,10.80
2019-02-12T12:36:53.369Z,10.60
2019-02-12T12:39:23.169Z,8.40
2019-02-12T12:41:52.996Z,8.50
2019-02-12T12:44:22.893Z,9.60
2019-02-12T12:46:52.748Z,9.40
2019-02-12T12:49:22.530Z,8.80
2019-02-12T12:51:52.353Z,8.40
2019-02-12T12:54:22.253Z,8.50
2019-02-12T12:56:52.065Z,8.40
2019-02-12T12:59:22.083Z,8.30
2019-02-12T13:01:51.956Z,9.20
2019-02-12T13:04:21.902Z,9.10
2019-02-12T13:06:51.698Z,9.80
2019-02-12T13:09:21.645Z,9.40
2019-02-12T13:11:51.521Z,9.30
2019-02-12T13:14:21.477Z,8.20
2019-02-12T13:16:51.263Z,7.40
2019-02-12T13:19:21.099Z,7.60
2019-02-12T13:21:50.880Z,6.60
2019-02-12T13:24:20.710Z,6.30
2019-02-12T13:26:50.513Z,6.60
2019-02-12T13:29:20.547Z,6.80
2019-02-12T13:31:50.358Z,7.60
2019-02-12T13:34:20.343Z,7.50
2019-02-12T13:36:51.884Z,7.90
2019-02-12T13:39:21.718Z,7.10
2019-02-12T13:41:51.649Z,5.80
2019-02-12T13:44:21.441Z,4.70
2019-02-12T13:46:51.366Z,4.00
2019-02-12T13:49:21.269Z,3.20
2019-02-12T13:51:51.101Z,2.80
2019-02-12T13:54:21.014Z,2.50
2019-02-12T13:56:50.894Z,2.40
2019-02-12T13:59:20.949Z,2.30
2019-02-12T14:01:50.941Z,2.40
2019-02-12T14:04:20.873Z,2.20
2019-02-12T14:06:50.869Z,2.10
2019-02-12T14:09:20.702Z,2.10
2019-02-12T14:11:50.801Z,2.20
2019-02-12T14:14:20.729Z,2.00
2019-02-12T14:16:50.542Z,2.00
2019-02-12T14:19:20.429Z,2.00
2019-02-12T14:21:51.972Z,1.90
2019-02-12T14:24:21.801Z,1.90
2019-02-12T14:26:51.743Z,1.90
2019-02-12T14:29:21.525Z,1.90
2019-02-12T14:31:52.973Z,1.90
2019-02-12T14:34:22.778Z,1.90
2019-02-12T14:36:52.822Z,1.90
2019-02-12T14:39:22.893Z,1.90
2019-02-12T14:41:52.869Z,1.80
2019-02-12T14:44:22.769Z,1.70
2019-02-12T14:46:52.549Z,1.70
2019-02-12T14:49:22.597Z,1.70
2019-02-12T14:51:52.383Z,1.80
2019-02-12T14:54:23.655Z,1.70
2019-02-12T14:56:54.441Z,1.70
2019-02-12T14:59:24.303Z,1.70
2019-02-12T15:01:55.950Z,1.70
2019-02-12T15:04:27.674Z,1.70
2019-02-12T15:06:57.501Z,1.60
2019-02-12T15:09:28.346Z,1.60
2019-02-12T15:11:58.505Z,1.50
2019-02-12T15:14:28.607Z,1.50
2019-02-12T15:16:58.794Z,1.50
2019-02-12T15:19:28.701Z,1.50
2019-02-12T15:21:58.649Z,1.50
2019-02-12T15:24:28.747Z,1.50
2019-02-12T15:26:58.880Z,1.50
2019-02-12T15:29:28.765Z,1.50
2019-02-12T15:31:58.717Z,1.50
2019-02-12T15:34:28.721Z,1.50
2019-02-12T15:37:01.095Z,1.50
2019-02-12T15:39:30.993Z,1.50
2019-02-12T15:42:01.003Z,1.40
2019-02-12T15:44:31.097Z,1.40
2019-02-12T15:47:00.830Z,1.40
2019-02-12T15:49:33.529Z,1.50
2019-02-12T15:52:03.413Z,1.50
2019-02-12T15:54:33.357Z,1.50
2019-02-12T15:57:03.141Z,1.50
2019-02-12T15:59:33.497Z,1.50
2019-02-12T16:02:03.293Z,1.50
2019-02-12T16:04:33.092Z,1.50
2019-02-12T16:07:03.025Z,1.50
2019-02-12T16:09:33.591Z,1.50
2019-02-12T16:12:06.087Z,1.40
2019-02-12T16:14:36.022Z,1.50
2019-02-12T16:17:05.957Z,1.50
2019-02-12T16:19:36.031Z,1.50
2019-02-12T16:22:05.994Z,1.50
2019-02-12T16:24:35.761Z,1.50
2019-02-12T16:27:05.797Z,1.50
2019-02-12T16:29:35.722Z,1.50
2019-02-12T16:32:05.524Z,1.60
2019-02-12T16:34:35.370Z,1.60
2019-02-12T16:37:05.348Z,1.60
2019-02-12T16:39:35.333Z,1.60
2019-02-12T16:42:05.487Z,1.60
2019-02-12T16:44:35.514Z,1.60
2019-02-12T16:47:05.393Z,1.60
2019-02-12T16:49:35.530Z,1.70
2019-02-12T16:52:05.552Z,1.70
2019-02-12T16:54:35.467Z,1.70
2019-02-12T16:57:05.389Z,1.70
2019-02-12T16:59:35.185Z,1.80
2019-02-12T17:02:05.013Z,1.70
2019-02-12T17:04:34.797Z,1.70
2019-02-12T17:07:04.641Z,1.70
2019-02-12T17:09:34.532Z,1.70
2019-02-12T17:12:04.480Z,1.70
2019-02-12T17:14:34.293Z,1.70
2019-02-12T17:17:04.212Z,1.80
2019-02-12T17:19:34.102Z,1.70
2019-02-12T17:22:03.885Z,1.80
2019-02-12T17:24:33.735Z,1.80
2019-02-12T17:27:03.620Z,1.70
2019-02-12T17:29:33.453Z,1.80
2019-02-12T17:32:03.646Z,1.80
2019-02-12T17:34:33.490Z,1.80
2019-02-12T17:37:03.512Z,1.90
2019-02-12T17:39:33.314Z,1.80
2019-02-12T17:42:03.223Z,1.90
2019-02-12T17:44:33.007Z,1.90
2019-02-12T17:47:02.958Z,1.90
2019-02-12T17:49:32.830Z,1.90
2019-02-12T17:52:04.091Z,1.90
2019-02-12T17:54:34.514Z,1.90
2019-02-12T17:57:04.397Z,1.90
2019-02-12T17:59:34.331Z,1.90
2019-02-12T18:02:04.489Z,1.90
2019-02-12T18:04:34.465Z,2.00
2019-02-12T18:07:04.401Z,2.00
2019-02-12T18:09:34.222Z,2.10
2019-02-12T18:12:04.093Z,2.00
2019-02-12T18:14:33.845Z,2.00
2019-02-12T18:17:03.838Z,2.00
2019-02-12T18:19:33.657Z,2.00
2019-02-12T18:22:03.465Z,2.00
2019-02-12T18:24:33.281Z,2.00
2019-02-12T18:27:03.091Z,2.00
2019-02-12T18:29:33.039Z,2.00
2019-02-12T18:32:02.918Z,2.00
2019-02-12T18:34:32.725Z,1.90
2019-02-12T18:37:02.557Z,2.00
2019-02-12T18:39:34.137Z,1.90
2019-02-12T18:42:04.121Z,1.90
2019-02-12T18:44:33.911Z,1.90
2019-02-12T18:47:03.850Z,1.90
2019-02-12T18:49:33.725Z,1.90
2019-02-12T18:52:03.680Z,1.90
2019-02-12T18:54:33.453Z,2.00
2019-02-12T18:57:03.289Z,2.00
2019-02-12T18:59:33.210Z,2.00
2019-02-12T19:02:03.111Z,2.00
2019-02-12T19:04:33.041Z,1.90
2019-02-12T19:07:02.917Z,2.00
2019-02-12T19:09:32.889Z,1.90
2019-02-12T19:12:02.862Z,1.90
2019-02-12T19:14:32.855Z,1.90
2019-02-12T19:17:02.802Z,1.90
2019-02-12T19:19:32.886Z,1.90
2019-02-12T19:22:02.834Z,1.90
2019-02-12T19:24:32.636Z,1.90
2019-02-12T19:27:02.790Z,1.90
2019-02-12T19:29:32.977Z,1.90
2019-02-12T19:32:03.031Z,1.90
2019-02-12T19:34:33.082Z,1.90
2019-02-12T19:37:03.141Z,1.90
2019-02-12T19:39:33.047Z,1.90
2019-02-12T19:42:02.969Z,1.90
2019-02-12T19:44:32.959Z,1.90
2019-02-12T19:47:02.814Z,1.90
2019-02-12T19:49:32.777Z,1.90
2019-02-12T19:52:02.934Z,1.80
2019-02-12T19:54:34.672Z,1.80
2019-02-12T19:57:04.572Z,1.80
2019-02-12T19:59:34.517Z,1.80
2019-02-12T20:02:04.411Z,1.80
2019-02-12T20:04:34.353Z,1.70
2019-02-12T20:07:04.236Z,1.80
2019-02-12T20:09:34.292Z,1.80
2019-02-12T20:12:04.393Z,1.80
2019-02-12T20:14:34.169Z,1.80
2019-02-12T20:17:04.129Z,1.80
2019-02-12T20:19:33.897Z,1.70
2019-02-12T20:22:03.981Z,1.70
2019-02-12T20:24:33.943Z,1.70
2019-02-12T20:27:06.620Z,1.80
2019-02-12T20:29:35.303Z,1.80
2019-02-12T20:32:05.129Z,1.80
2019-02-12T20:34:35.929Z,1.80
2019-02-12T20:37:05.789Z,1.80
2019-02-12T20:39:35.593Z,1.80
2019-02-12T20:42:05.521Z,1.80
2019-02-12T20:44:35.526Z,1.80
2019-02-12T20:47:05.502Z,1.70
2019-02-12T20:49:35.664Z,1.80
2019-02-12T20:52:05.644Z,1.80
2019-02-12T20:54:35.477Z,1.80
2019-02-12T20:57:05.375Z,1.80
2019-02-12T20:59:35.201Z,1.80
2019-02-12T21:02:04.994Z,1.80
2019-02-12T21:04:34.912Z,1.80
2019-02-12T21:07:04.841Z,1.90
2019-02-12T21:09:34.621Z,1.80
2019-02-12T21:12:04.569Z,1.80
2019-02-12T21:14:34.682Z,1.90
2019-02-12T21:17:04.507Z,1.90
2019-02-12T21:19:34.397Z,1.80
2019-02-12T21:22:04.348Z,1.80
2019-02-12T21:24:34.121Z,1.80
2019-02-12T21:27:03.966Z,1.80
2019-02-12T21:29:33.858Z,1.80
2019-02-12T21:32:03.643Z,1.80
2019-02-12T21:34:33.592Z,1.80
2019-02-12T21:37:03.474Z,1.80
2019-02-12T21:39:33.314Z,1.70
2019-02-12T21:42:03.106Z,1.80
2019-02-12T21:44:32.920Z,1.80
2019-02-12T21:47:02.825Z,1.80
2019-02-12T21:49:32.661Z,1.80
2019-02-12T21:52:02.474Z,1.80
2019-02-12T21:54:32.264Z,1.80
2019-02-12T21:57:03.845Z,1.80
2019-02-12T21:59:33.713Z,1.90
2019-02-12T22:02:03.562Z,1.90
2019-02-12T22:04:33.569Z,1.90
2019-02-12T22:07:03.554Z,1.90
2019-02-12T22:09:33.384Z,2.00
2019-02-12T22:12:03.309Z,1.90
2019-02-12T22:14:33.626Z,2.00
2019-02-12T22:17:05.457Z,1.90
2019-02-12T22:19:37.144Z,1.90
2019-02-12T22:22:07.141Z,1.90
2019-02-12T22:24:36.985Z,1.90
2019-02-12T22:27:06.971Z,1.90
2019-02-12T22:29:37.014Z,1.90
2019-02-12T22:32:06.801Z,1.80
2019-02-12T22:34:36.826Z,1.70
2019-02-12T22:37:06.944Z,1.70
2019-02-12T22:39:36.870Z,1.70
2019-02-12T22:42:06.769Z,1.70
2019-02-12T22:44:36.813Z,1.70
2019-02-12T22:47:06.721Z,1.70
2019-02-12T22:49:36.668Z,1.70
2019-02-12T22:52:06.855Z,1.80
2019-02-12T22:54:36.645Z,1.80
2019-02-12T22:57:06.593Z,1.80
2019-02-12T22:59:36.556Z,1.80
2019-02-12T23:02:06.605Z,1.80
2019-02-12T23:04:36.504Z,1.70
2019-02-12T23:07:06.353Z,1.70
2019-02-12T23:09:36.233Z,1.60
2019-02-12T23:12:06.247Z,1.60
2019-02-12T23:14:36.064Z,1.50
2019-02-12T23:17:05.850Z,1.50
2019-02-12T23:19:35.693Z,1.40
2019-02-12T23:22:05.517Z,1.40
2019-02-12T23:24:35.423Z,1.40
2019-02-12T23:27:05.221Z,1.30
2019-02-12T23:29:35.037Z,1.30
2019-02-12T23:32:04.835Z,1.30
2019-02-12T23:34:34.770Z,1.20
2019-02-12T23:37:04.685Z,1.20
2019-02-12T23:39:34.675Z,1.10
2019-02-12T23:42:04.509Z,1.00
2019-02-12T23:44:34.289Z,0.80
2019-02-12T23:47:04.135Z,0.70
2019-02-12T23:49:34.127Z,0.70
2019-02-12T23:52:04.066Z,0.60
2019-02-12T23:54:33.956Z,0.50
2019-02-12T23:57:03.833Z,0.50
2019-02-12T23:59:33.681Z,0.50
